Time;durP1;ratioP1;P1;durP2;ratioP2;P2;SDS_P1;SDS_P2;PMS_P1;PMS_P2;Temp;Humidity;BMP_temperature;BMP_pressure;BME280_temperature;BME280_humidity;BME280_pressure;Samples;Min_cycle;Max_cycle;Signal;HPM_P1;HPM_P2
2022/01/24 00:01:53;;;;;;;24.37;17.65;;;;;;;;;;4452259;32;20029;-75
2022/01/24 00:04:18;;;;;;;;;;;;;;;;;;4451564;32;20094;-74
2022/01/24 00:06:44;;;;;;;23.27;16.35;;;;;;;;;;4452901;32;19988;-74
2022/01/24 00:09:10;;;;;;;;;;;;;;;;;;4453552;32;20375;-74
2022/01/24 00:27:07;;;;;;;24.25;16.87;;;;;;;;;;4467964;32;20063;-75
2022/01/24 00:29:32;;;;;;;;;;;;;;;;;;4467379;32;20037;-75
2022/01/24 00:31:58;;;;;;;23.02;16.12;;;;;;;;;;4452636;32;19944;-74
2022/01/24 00:34:23;;;;;;;;;;;;;;;;;;4450505;32;20025;-74
2022/01/24 00:36:49;;;;;;;23.75;17.30;;;;;;;;;;4451131;32;19973;-74
2022/01/24 00:39:14;;;;;;;;;;;;;;;;;;4436963;32;20067;-74
2022/01/24 00:47:09;;;;;;;27.58;17.85;;;;;;;;;;4452232;32;20048;-74
2022/01/24 00:49:54;;;;;;;27.25;18.37;;;;;;;;;;4437537;32;20026;-74
2022/01/24 00:55:04;;;;;;;28.75;17.85;;;;;;;;;;4451380;32;20073;-74
2022/01/24 00:57:29;;;;;;;;;;;;;;;;;;4451125;32;20409;-74
2022/01/24 00:59:54;;;;;;;30.30;18.55;;;;;;;;;;4451055;32;20306;-74
2022/01/24 01:02:19;;;;;;;;;;;;;;;;;;4453038;32;20026;-75
2022/01/24 01:07:26;;;;;;;27.90;18.52;;;;;;;;;;4452495;32;20414;-74
2022/01/24 01:18:15;;;;;;;39.08;22.60;;;;;;;;;;4454427;32;20085;-73
2022/01/24 01:21:07;;;;;;;36.63;22.33;;;;;;;;;;4439963;32;20014;-74
2022/01/24 01:23:35;;;;;;;42.50;25.45;;;;;;;;;;4454045;32;20043;-74
2022/01/24 01:26:08;;;;;;;41.10;24.95;;;;;;;;;;4454021;32;20045;-74
2022/01/24 01:28:34;;;;;;;48.00;28.20;;;;;;;;;;4468327;32;20099;-74
2022/01/24 01:31:05;;;;;;;44.25;26.60;;;;;;;;;;4456441;32;20037;-73
2022/01/24 01:55:38;;;;;;;60.33;33.05;;;;;;;;;;4455372;32;20026;-74
2022/01/24 01:58:04;;;;;;;58.20;32.75;;;;;;;;;;4453635;32;20025;-73
2022/01/24 02:00:30;;;;;;;52.22;32.33;;;;;;;;;;4440473;32;20029;-74
2022/01/24 02:02:55;;;;;;;;;;;;;;;;;;4439396;32;20051;-73
2022/01/24 02:05:21;;;;;;;60.17;34.47;;;;;;;;;;4453356;32;20000;-74
2022/01/24 02:07:48;;;;;;;59.13;34.17;;;;;;;;;;4452778;32;20030;-74
2022/01/24 02:10:14;;;;;;;73.43;38.60;;;;;;;;;;4454525;32;20033;-73
2022/01/24 02:12:39;;;;;;;;;;;;;;;;;;4453307;32;20018;-73
2022/01/24 02:15:04;;;;;;;73.22;37.33;;;;;;;;;;4455909;32;19932;-74
2022/01/24 02:17:43;;;;;;;;;;;;;;;;;;4469141;32;20454;-74
2022/01/24 02:20:37;;;;;;;64.30;36.83;;;;;;;;;;4468573;32;20370;-72
2022/01/24 02:25:41;;;;;;;69.85;39.00;;;;;;;;;;4469153;32;20507;-73
2022/01/24 02:28:06;;;;;;;;;;;;;;;;;;4469024;32;20024;-74
2022/01/24 02:30:57;;;;;;;70.43;41.00;;;;;;;;;;4462297;32;20287;-73
2022/01/24 02:33:22;;;;;;;71.50;38.58;;;;;;;;;;4453210;32;20522;-73
2022/01/24 02:35:47;;;;;;;;;;;;;;;;;;4440015;32;20043;-73
2022/01/24 02:38:24;;;;;;;81.63;41.00;;;;;;;;;;4438737;32;19944;-73
2022/01/24 02:46:05;;;;;;;78.90;41.60;;;;;;;;;;4453946;32;20391;-73
2022/01/24 02:49:06;;;;;;;72.15;41.55;;;;;;;;;;4453309;32;20089;-75
2022/01/24 02:51:47;;;;;;;;;;;;;;;;;;4467415;32;20021;-73
2022/01/24 02:54:18;;;;;;;78.72;42.30;;;;;;;;;;4469032;32;19936;-73
2022/01/24 02:56:43;;;;;;;85.97;44.50;;;;;;;;;;4468307;32;20024;-74
2022/01/24 02:59:08;;;;;;;;;;;;;;;;;;4453778;32;20029;-74
2022/01/24 03:01:33;;;;;;;81.93;43.90;;;;;;;;;;4467993;32;20301;-73
2022/01/24 03:03:58;;;;;;;;;;;;;;;;;;4468842;32;20051;-74
2022/01/24 03:06:24;;;;;;;81.07;41.90;;;;;;;;;;4438380;32;19940;-75
2022/01/24 03:08:49;;;;;;;;;;;;;;;;;;4443791;32;20442;-71
2022/01/24 03:11:14;;;;;;;;;;;;;;;;;;4469100;32;19974;-73
2022/01/24 03:13:39;;;;;;;;;;;;;;;;;;4468045;32;19936;-72
2022/01/24 03:16:04;;;;;;;;;;;;;;;;;;4453721;32;19936;-74
2022/01/24 03:18:29;;;;;;;;;;;;;;;;;;4469800;32;19976;-73
2022/01/24 03:20:55;;;;;;;;;;;;;;;;;;4468800;32;19950;-73
2022/01/24 03:23:20;;;;;;;;;;;;;;;;;;4468963;32;20309;-73
2022/01/24 03:25:45;;;;;;;;;;;;;;;;;;4467952;32;20275;-74
2022/01/24 03:28:10;;;;;;;;;;;;;;;;;;4461055;32;19985;-73
2022/01/24 03:30:35;;;;;;;;;;;;;;;;;;4437827;32;19948;-72
2022/01/24 03:33:00;;;;;;;;;;;;;;;;;;4452080;32;19943;-73
2022/01/24 03:35:25;;;;;;;;;;;;;;;;;;4451820;32;19940;-74
2022/01/24 03:37:50;;;;;;;;;;;;;;;;;;4450738;32;19933;-74
2022/01/24 03:40:15;;;;;;;;;;;;;;;;;;4454197;32;19944;-74
2022/01/24 03:42:40;;;;;;;;;;;;;;;;;;4451355;32;19947;-72
2022/01/24 03:45:07;;;;;;;;;;;;;;;;;;4450746;32;19937;-72
2022/01/24 03:50:00;;;;;;;;;;;;;;;;;;4452812;32;19937;-73
2022/01/24 03:52:26;;;;;;;;;;;;;;;;;;4453021;32;19940;-73
2022/01/24 03:54:51;;;;;;;;;;;;;;;;;;4467325;32;19941;-73
2022/01/24 03:57:16;;;;;;;;;;;;;;;;;;4467697;32;19992;-73
2022/01/24 03:59:41;;;;;;;;;;;;;;;;;;4454645;32;20377;-73
2022/01/24 04:02:06;;;;;;;;;;;;;;;;;;4454558;32;19959;-72
2022/01/24 04:04:31;;;;;;;;;;;;;;;;;;4454519;32;19936;-73
2022/01/24 04:06:56;;;;;;;;;;;;;;;;;;4467232;32;19955;-74
2022/01/24 04:09:21;;;;;;;;;;;;;;;;;;4439933;32;20322;-74
2022/01/24 04:11:51;;;;;;;;;;;;;;;;;;4452556;32;19943;-74
2022/01/24 04:14:40;;;;;;;;;;;;;;;;;;4452513;32;19988;-73
2022/01/24 04:22:02;;;;;;;;;;;;;;;;;;4459404;32;19961;-73
2022/01/24 04:24:27;;;;;;;;;;;;;;;;;;4466729;32;20321;-73
2022/01/24 04:26:52;;;;;;;;;;;;;;;;;;4453345;32;19952;-73
2022/01/24 04:29:17;;;;;;;;;;;;;;;;;;4468126;32;19932;-73
2022/01/24 04:31:44;;;;;;;;;;;;;;;;;;4452683;32;19936;-73
2022/01/24 04:34:09;;;;;;;;;;;;;;;;;;4453488;32;19970;-71
2022/01/24 04:36:34;;;;;;;;;;;;;;;;;;4452590;32;19936;-73
2022/01/24 04:38:59;;;;;;;;;;;;;;;;;;4452426;32;20247;-72
2022/01/24 04:41:28;;;;;;;;;;;;;;;;;;4468270;32;19936;-74
2022/01/24 04:57:04;;;;;;;;;;;;;;;;;;4451134;32;19956;-73
2022/01/24 04:59:29;;;;;;;;;;;;;;;;;;4451267;32;19932;-74
2022/01/24 05:01:54;;;;;;;;;;;;;;;;;;4437966;32;20268;-74
2022/01/24 05:04:19;;;;;;;;;;;;;;;;;;4451677;32;19941;-72
2022/01/24 05:06:45;;;;;;;;;;;;;;;;;;4438442;32;19946;-73
2022/01/24 05:09:10;;;;;;;;;;;;;;;;;;4451425;32;19937;-72
2022/01/24 05:25:22;;;;;;;;;;;;;;;;;;4452508;32;20015;-77
2022/01/24 05:27:47;;;;;;;;;;;;;;;;;;4451988;32;19941;-73
2022/01/24 05:30:12;;;;;;;;;;;;;;;;;;4450514;32;19950;-74
2022/01/24 05:32:37;;;;;;;;;;;;;;;;;;4450696;32;19992;-73
2022/01/24 05:35:03;;;;;;;;;;;;;;;;;;4451860;32;19933;-73
2022/01/24 05:37:28;;;;;;;;;;;;;;;;;;4436589;32;19950;-73
2022/01/24 05:39:53;;;;;;;;;;;;;;;;;;4436685;32;19932;-74
2022/01/24 05:42:21;;;;;;;;;;;;;;;;;;4436806;32;19936;-74
2022/01/24 05:44:46;;;;;;;;;;;;;;;;;;4452468;32;19994;-73
2022/01/24 05:47:11;;;;;;;;;;;;;;;;;;4450237;32;19944;-74
2022/01/24 05:49:37;;;;;;;;;;;;;;;;;;4468201;32;19932;-74
2022/01/24 05:52:04;;;;;;;;;;;;;;;;;;4467194;32;20261;-73
2022/01/24 05:54:30;;;;;;;;;;;;;;;;;;4466533;32;19967;-73
2022/01/24 05:56:55;;;;;;;;;;;;;;;;;;4467514;32;20312;-74
2022/01/24 05:59:20;;;;;;;;;;;;;;;;;;4455266;32;20313;-72
2022/01/24 06:01:45;;;;;;;;;;;;;;;;;;4455905;32;19959;-74
2022/01/24 06:04:10;;;;;;;;;;;;;;;;;;4455563;32;19936;-73
2022/01/24 06:06:36;;;;;;;;;;;;;;;;;;4468829;32;19948;-74
2022/01/24 06:09:01;;;;;;;;;;;;;;;;;;4470169;32;20023;-74
2022/01/24 06:11:27;;;;;;;;;;;;;;;;;;4461235;32;19939;-72
2022/01/24 06:13:52;;;;;;;;;;;;;;;;;;4455728;32;19989;-73
2022/01/24 06:16:17;;;;;;;;;;;;;;;;;;4464396;32;19932;-73
2022/01/24 06:18:42;;;;;;;;;;;;;;;;;;4468772;32;20278;-74
2022/01/24 06:21:08;;;;;;;;;;;;;;;;;;4459134;32;20022;-73
2022/01/24 06:23:33;;;;;;;;;;;;;;;;;;4440652;32;19940;-74
2022/01/24 06:25:58;;;;;;;;;;;;;;;;;;4455379;32;19932;-73
2022/01/24 06:28:23;;;;;;;;;;;;;;;;;;4439364;32;19941;-73
2022/01/24 06:30:48;;;;;;;;;;;;;;;;;;4438913;32;19936;-76
2022/01/24 06:33:13;;;;;;;;;;;;;;;;;;4453180;32;19932;-76
2022/01/24 06:35:38;;;;;;;;;;;;;;;;;;4439823;32;20060;-75
2022/01/24 06:38:03;;;;;;;;;;;;;;;;;;4438260;32;19988;-75
2022/01/24 06:40:28;;;;;;;;;;;;;;;;;;4467280;32;19952;-75
2022/01/24 06:42:53;;;;;;;;;;;;;;;;;;4470172;32;19932;-75
2022/01/24 06:45:19;;;;;;;;;;;;;;;;;;4468402;32;19967;-75
2022/01/24 06:47:44;;;;;;;;;;;;;;;;;;4468555;32;19940;-75
2022/01/24 06:50:09;;;;;;;;;;;;;;;;;;4448991;32;20371;-74
2022/01/24 06:52:34;;;;;;;;;;;;;;;;;;4459322;32;19984;-76
2022/01/24 06:54:59;;;;;;;;;;;;;;;;;;4469108;32;19936;-75
2022/01/24 06:57:25;;;;;;;;;;;;;;;;;;4467871;32;19947;-75
2022/01/24 06:59:50;;;;;;;;;;;;;;;;;;4467570;32;19948;-76
2022/01/24 07:02:15;;;;;;;;;;;;;;;;;;4460372;32;19952;-75
2022/01/24 07:04:42;;;;;;;;;;;;;;;;;;4467381;32;19942;-76
2022/01/24 07:07:07;;;;;;;;;;;;;;;;;;4453375;32;19994;-75
2022/01/24 07:09:32;;;;;;;;;;;;;;;;;;4467844;32;19940;-75
2022/01/24 07:11:57;;;;;;;;;;;;;;;;;;4467742;32;19932;-75
2022/01/24 07:14:22;;;;;;;;;;;;;;;;;;4465163;32;20298;-75
2022/01/24 07:19:21;;;;;;;;;;;;;;;;;;4456834;32;20015;-75
2022/01/24 07:21:46;;;;;;;;;;;;;;;;;;4467725;32;19950;-76
2022/01/24 07:24:12;;;;;;;;;;;;;;;;;;4453028;32;19972;-75
2022/01/24 07:26:37;;;;;;;;;;;;;;;;;;4467016;32;20297;-76
2022/01/24 07:29:02;;;;;;;;;;;;;;;;;;4467424;32;19936;-76
2022/01/24 07:31:27;;;;;;;;;;;;;;;;;;4445622;32;20000;-75
2022/01/24 07:33:52;;;;;;;;;;;;;;;;;;4461261;32;19940;-76
2022/01/24 07:36:17;;;;;;;;;;;;;;;;;;4455533;32;19944;-75
2022/01/24 07:38:42;;;;;;;;;;;;;;;;;;4451851;32;19947;-76
2022/01/24 07:41:07;;;;;;;;;;;;;;;;;;4456087;32;19965;-76
2022/01/24 07:43:33;;;;;;;;;;;;;;;;;;4466661;32;19936;-76
2022/01/24 07:45:58;;;;;;;;;;;;;;;;;;4441573;32;19982;-76
2022/01/24 07:48:23;;;;;;;;;;;;;;;;;;4438940;32;19937;-76
2022/01/24 07:50:51;;;;;;;;;;;;;;;;;;4452824;32;19944;-77
2022/01/24 07:53:16;;;;;;;;;;;;;;;;;;4460881;32;19937;-77
2022/01/24 07:55:41;;;;;;;;;;;;;;;;;;4440650;32;20238;-76
2022/01/24 07:58:06;;;;;;;;;;;;;;;;;;4448069;32;20071;-77
2022/01/24 08:00:31;;;;;;;;;;;;;;;;;;4453159;32;19936;-77
2022/01/24 08:02:57;;;;;;;;;;;;;;;;;;4461787;32;19947;-76
2022/01/24 08:05:22;;;;;;;;;;;;;;;;;;4452527;32;19932;-75
2022/01/24 08:07:47;;;;;;;;;;;;;;;;;;4443968;32;20295;-77
2022/01/24 08:10:12;;;;;;;;;;;;;;;;;;4458525;32;20033;-77
2022/01/24 08:12:38;;;;;;;;;;;;;;;;;;4456221;32;19970;-77
2022/01/24 08:15:04;;;;;;;;;;;;;;;;;;4445864;32;19929;-76
2022/01/24 08:17:29;;;;;;;;;;;;;;;;;;4451980;32;19984;-76
2022/01/24 08:19:54;;;;;;;;;;;;;;;;;;4451925;32;19958;-76
2022/01/24 08:22:19;;;;;;;;;;;;;;;;;;4452386;32;19948;-77
2022/01/24 08:24:44;;;;;;;;;;;;;;;;;;4445671;32;19998;-77
2022/01/24 08:27:09;;;;;;;;;;;;;;;;;;4446599;32;19971;-76
2022/01/24 08:29:34;;;;;;;;;;;;;;;;;;4467332;32;19932;-75
2022/01/24 08:31:59;;;;;;;;;;;;;;;;;;4464053;32;19987;-76
2022/01/24 08:34:24;;;;;;;;;;;;;;;;;;4441995;32;19958;-77
2022/01/24 08:36:49;;;;;;;;;;;;;;;;;;4437611;32;19944;-76
2022/01/24 08:39:15;;;;;;;;;;;;;;;;;;4454874;32;19942;-76
2022/01/24 08:46:43;;;;;;;;;;;;;;;;;;4468551;32;19932;-76
2022/01/24 08:49:08;;;;;;;;;;;;;;;;;;4452758;32;19978;-76
2022/01/24 08:51:33;;;;;;;;;;;;;;;;;;4454595;32;20310;-75
2022/01/24 08:53:58;;;;;;;;;;;;;;;;;;4455029;32;19936;-76
2022/01/24 08:56:25;;;;;;;;;;;;;;;;;;4453667;32;19950;-76
2022/01/24 08:58:50;;;;;;;;;;;;;;;;;;4441256;32;19932;-77
2022/01/24 09:01:15;;;;;;;;;;;;;;;;;;4454526;32;19932;-76
2022/01/24 09:03:41;;;;;;;;;;;;;;;;;;4450972;32;19970;-76
2022/01/24 09:06:06;;;;;;;;;;;;;;;;;;4450941;32;20295;-76
2022/01/24 09:08:31;;;;;;;;;;;;;;;;;;4436923;32;20282;-76
2022/01/24 09:10:57;;;;;;;;;;;;;;;;;;4451127;32;19932;-77
2022/01/24 09:13:22;;;;;;;;;;;;;;;;;;4451516;32;19937;-77
2022/01/24 09:15:47;;;;;;;;;;;;;;;;;;4436802;32;19996;-76
2022/01/24 09:18:12;;;;;;;;;;;;;;;;;;4437203;32;20273;-76
2022/01/24 09:20:41;;;;;;;;;;;;;;;;;;4451937;32;19984;-77
2022/01/24 09:23:06;;;;;;;;;;;;;;;;;;4438378;32;19932;-80
2022/01/24 09:25:31;;;;;;;;;;;;;;;;;;4439413;32;19932;-77
2022/01/24 09:27:56;;;;;;;;;;;;;;;;;;4436954;32;19943;-76
2022/01/24 09:30:21;;;;;;;;;;;;;;;;;;4450868;32;20335;-76
2022/01/24 09:32:46;;;;;;;;;;;;;;;;;;4453365;32;20005;-76
2022/01/24 09:35:11;;;;;;;;;;;;;;;;;;4453709;32;19943;-78
2022/01/24 09:37:36;;;;;;;;;;;;;;;;;;4456071;32;19956;-77
2022/01/24 09:40:02;;;;;;;;;;;;;;;;;;4461613;32;19950;-78
2022/01/24 09:42:27;;;;;;;;;;;;;;;;;;4457050;32;19940;-78
2022/01/24 09:44:52;;;;;;;;;;;;;;;;;;4455506;32;20313;-78
2022/01/24 09:47:17;;;;;;;;;;;;;;;;;;4454929;32;19936;-76
2022/01/24 09:49:42;;;;;;;;;;;;;;;;;;4452263;32;19956;-78
2022/01/24 09:52:07;;;;;;;;;;;;;;;;;;4452808;32;19950;-76
2022/01/24 09:54:32;;;;;;;;;;;;;;;;;;4443906;32;19962;-77
2022/01/24 09:56:57;;;;;;;;;;;;;;;;;;4446557;32;19959;-76
2022/01/24 09:59:22;;;;;;;;;;;;;;;;;;4454840;32;19980;-77
2022/01/24 10:01:47;;;;;;;;;;;;;;;;;;4459597;32;20272;-76
2022/01/24 10:04:14;;;;;;;;;;;;;;;;;;4461556;32;19936;-75
2022/01/24 10:06:39;;;;;;;;;;;;;;;;;;4453638;32;20059;-76
2022/01/24 10:09:04;;;;;;;;;;;;;;;;;;4440471;32;19983;-76
2022/01/24 10:11:29;;;;;;;;;;;;;;;;;;4442681;32;19974;-77
2022/01/24 10:16:45;;;;;;;;;;;;;;;;;;4463306;32;19961;-76
2022/01/24 10:19:10;;;;;;;;;;;;;;;;;;4453521;32;19975;-76
2022/01/24 10:21:35;;;;;;;;;;;;;;;;;;4440458;32;19936;-76
2022/01/24 10:24:00;;;;;;;;;;;;;;;;;;4454652;32;19956;-76
2022/01/24 10:26:25;;;;;;;;;;;;;;;;;;4458228;32;19932;-76
2022/01/24 10:28:50;;;;;;;;;;;;;;;;;;4453048;32;19932;-75
2022/01/24 10:31:16;;;;;;;;;;;;;;;;;;4451533;32;19936;-75
2022/01/24 10:33:41;;;;;;;;;;;;;;;;;;4454756;32;20325;-75
2022/01/24 10:36:06;;;;;;;;;;;;;;;;;;4450454;32;19976;-76
2022/01/24 10:38:53;;;;;;;;;;;;;;;;;;4457651;32;19936;-76
2022/01/24 10:41:24;;;;;;;;;;;;;;;;;;4469383;32;19944;-76
2022/01/24 10:43:50;;;;;;;;;;;;;;;;;;4449818;32;19931;-75
2022/01/24 10:46:15;;;;;;;;;;;;;;;;;;4459573;32;19970;-76
2022/01/24 10:48:40;;;;;;;;;;;;;;;;;;4457257;32;19944;-75
2022/01/24 10:51:05;;;;;;;;;;;;;;;;;;4450864;32;19950;-76
2022/01/24 10:53:30;;;;;;;;;;;;;;;;;;4447296;32;19950;-76
2022/01/24 10:55:55;;;;;;;;;;;;;;;;;;4459528;32;20328;-76
2022/01/24 10:58:20;;;;;;;;;;;;;;;;;;4458110;32;19960;-75
2022/01/24 11:00:45;;;;;;;;;;;;;;;;;;4439116;32;19936;-76
2022/01/24 11:03:11;;;;;;;;;;;;;;;;;;4445229;32;19960;-76
2022/01/24 11:05:36;;;;;;;;;;;;;;;;;;4452172;32;19955;-76
2022/01/24 11:08:01;;;;;;;;;;;;;;;;;;4456996;32;19959;-76
2022/01/24 11:10:26;;;;;;;;;;;;;;;;;;4460582;32;19972;-76
2022/01/24 11:12:52;;;;;;;;;;;;;;;;;;4454804;32;19974;-76
2022/01/24 11:15:17;;;;;;;;;;;;;;;;;;4465858;32;19950;-75
2022/01/24 11:17:42;;;;;;;;;;;;;;;;;;4445236;32;19940;-76
2022/01/24 11:20:11;;;;;;;;;;;;;;;;;;4452177;32;19946;-75
2022/01/24 11:22:42;;;;;;;;;;;;;;;;;;4439172;32;19979;-76
2022/01/24 11:25:08;;;;;;;;;;;;;;;;;;4459556;32;20314;-76
2022/01/24 11:27:33;;;;;;;;;;;;;;;;;;4463294;32;19932;-76
2022/01/24 11:29:58;;;;;;;;;;;;;;;;;;4466829;32;19951;-76
2022/01/24 11:32:24;;;;;;;;;;;;;;;;;;4468433;32;19932;-77
2022/01/24 11:34:49;;;;;;;;;;;;;;;;;;4469053;32;20280;-75
2022/01/24 11:37:14;;;;;;;;;;;;;;;;;;4453360;32;20302;-75
2022/01/24 11:39:40;;;;;;;;;;;;;;;;;;4455529;32;19982;-76
2022/01/24 11:42:05;;;;;;;;;;;;;;;;;;4469837;32;19954;-76
2022/01/24 11:44:30;;;;;;;;;;;;;;;;;;4467344;32;20238;-76
2022/01/24 11:46:55;;;;;;;;;;;;;;;;;;4453222;32;19965;-76
2022/01/24 11:49:20;;;;;;;;;;;;;;;;;;4467102;32;19951;-75
2022/01/24 11:51:46;;;;;;;;;;;;;;;;;;4445915;32;20276;-75
2022/01/24 11:54:11;;;;;;;;;;;;;;;;;;4449758;32;19935;-76
2022/01/24 11:56:37;;;;;;;;;;;;;;;;;;4458694;32;20356;-76
2022/01/24 11:59:02;;;;;;;;;;;;;;;;;;4452945;32;19948;-77
2022/01/24 12:01:28;;;;;;;;;;;;;;;;;;4455668;32;19932;-75
2022/01/24 12:03:53;;;;;;;;;;;;;;;;;;4467619;32;19931;-76
2022/01/24 12:06:19;;;;;;;;;;;;;;;;;;4469760;32;20003;-76
2022/01/24 12:08:46;;;;;;;;;;;;;;;;;;4465165;32;19991;-76
2022/01/24 12:11:11;;;;;;;;;;;;;;;;;;4459432;32;19974;-77
2022/01/24 12:13:37;;;;;;;;;;;;;;;;;;4453092;32;19937;-75
2022/01/24 12:16:02;;;;;;;;;;;;;;;;;;4448662;32;20051;-76
2022/01/24 12:18:28;;;;;;;;;;;;;;;;;;4452040;32;19940;-76
2022/01/24 12:20:53;;;;;;;;;;;;;;;;;;4451704;32;19932;-76
2022/01/24 12:23:25;;;;;;;;;;;;;;;;;;4462894;32;19967;-75
2022/01/24 12:25:52;;;;;;;;;;;;;;;;;;4462667;32;20309;-77
2022/01/24 12:28:17;;;;;;;;;;;;;;;;;;4452480;32;19940;-77
2022/01/24 12:30:43;;;;;;;;;;;;;;;;;;4452602;32;19991;-76
2022/01/24 12:33:08;;;;;;;;;;;;;;;;;;4445926;32;19940;-75
2022/01/24 12:35:33;;;;;;;;;;;;;;;;;;4438246;32;19940;-75
2022/01/24 12:37:58;;;;;;;;;;;;;;;;;;4435120;32;20023;-76
2022/01/24 12:40:28;;;;;;;;;;;;;;;;;;4434775;32;19933;-76
2022/01/24 12:42:58;;;;;;;;;;;;;;;;;;4435332;32;19937;-75
2022/01/24 12:48:07;;;;;;;;;;;;;;;;;;4452513;32;20273;-76
2022/01/24 12:50:32;;;;;;;;;;;;;;;;;;4450263;32;19940;-76
2022/01/24 12:52:57;;;;;;;;;;;;;;;;;;4451451;32;19976;-77
2022/01/24 12:55:22;;;;;;;;;;;;;;;;;;4449755;32;19975;-76
2022/01/24 12:57:47;;;;;;;;;;;;;;;;;;4450610;32;19976;-76
2022/01/24 13:00:12;;;;;;;;;;;;;;;;;;4444332;32;19941;-75
2022/01/24 13:02:38;;;;;;;;;;;;;;;;;;4435634;32;20347;-74
2022/01/24 13:05:03;;;;;;;;;;;;;;;;;;4435355;32;19987;-76
2022/01/24 13:07:31;;;;;;;;;;;;;;;;;;4435947;32;20331;-75
2022/01/24 13:09:56;;;;;;;;;;;;;;;;;;4437085;32;19976;-75
2022/01/24 13:12:22;;;;;;;;;;;;;;;;;;4447577;32;19947;-76
2022/01/24 13:14:51;;;;;;;;;;;;;;;;;;4442950;32;19933;-75
2022/01/24 13:22:54;;;;;;;;;;;;;;;;;;4439368;32;20268;-77
2022/01/24 13:25:25;;;;;;;;;;;;;;;;;;4437418;32;20028;-75
2022/01/24 13:27:50;;;;;;;;;;;;;;;;;;4445630;32;20366;-75
2022/01/24 13:30:16;;;;;;;;;;;;;;;;;;4444711;32;20310;-75
2022/01/24 13:32:41;;;;;;;;;;;;;;;;;;4442707;32;19974;-75
2022/01/24 13:35:06;;;;;;;;;;;;;;;;;;4437794;32;19952;-75
2022/01/24 13:37:32;;;;;;;;;;;;;;;;;;4438943;32;19960;-75
2022/01/24 13:39:57;;;;;;;;;;;;;;;;;;4439952;32;20088;-75
2022/01/24 13:42:22;;;;;;;;;;;;;;;;;;4456052;32;19932;-76
2022/01/24 13:44:47;;;;;;;;;;;;;;;;;;4454634;32;19936;-76
2022/01/24 13:47:12;;;;;;;;;;;;;;;;;;4440638;32;20359;-74
2022/01/24 13:49:37;;;;;;;;;;;;;;;;;;4441172;32;20000;-76
2022/01/24 13:52:07;;;;;;;;;;;;;;;;;;4440774;32;19937;-75
2022/01/24 13:54:34;;;;;;;;;;;;;;;;;;4438919;32;19932;-74
2022/01/24 13:56:59;;;;;;;;;;;;;;;;;;4452668;32;19983;-75
2022/01/24 13:59:24;;;;;;;;;;;;;;;;;;4454239;32;19999;-76
2022/01/24 14:01:50;;;;;;;;;;;;;;;;;;4449753;32;20348;-75
2022/01/24 14:04:15;;;;;;;;;;;;;;;;;;4454524;32;19932;-76
2022/01/24 14:06:40;;;;;;;;;;;;;;;;;;4465336;32;19931;-76
2022/01/24 14:09:05;;;;;;;;;;;;;;;;;;4461538;32;19943;-75
2022/01/24 14:11:30;;;;;;;;;;;;;;;;;;4469204;32;19979;-75
2022/01/24 14:13:59;;;;;;;;;;;;;;;;;;4447390;32;19951;-76
2022/01/24 14:16:32;;;;;;;;;;;;;;;;;;4442787;32;19981;-77
2022/01/24 14:18:57;;;;;;;;;;;;;;;;;;4451604;32;20321;-75
2022/01/24 14:21:24;;;;;;;;;;;;;;;;;;4451819;32;20419;-75
2022/01/24 14:23:49;;;;;;;;;;;;;;;;;;4450355;32;20000;-75
2022/01/24 14:26:14;;;;;;;;;;;;;;;;;;4443068;32;19948;-76
2022/01/24 14:28:40;;;;;;;;;;;;;;;;;;4438967;32;20014;-75
2022/01/24 14:31:05;;;;;;;;;;;;;;;;;;4458492;32;20363;-76
2022/01/24 14:33:30;;;;;;;;;;;;;;;;;;4439412;32;19977;-75
2022/01/24 14:35:56;;;;;;;;;;;;;;;;;;4448430;32;19940;-76
2022/01/24 14:38:21;;;;;;;;;;;;;;;;;;4461949;32;20033;-77
2022/01/24 14:40:48;;;;;;;;;;;;;;;;;;4455517;32;19951;-75
2022/01/24 14:45:57;;;;;;;;;;;;;;;;;;4467079;32;19940;-76
2022/01/24 14:48:22;;;;;;;;;;;;;;;;;;4456788;32;19932;-75
2022/01/24 14:50:47;;;;;;;;;;;;;;;;;;4441093;32;19944;-77
2022/01/24 14:53:16;;;;;;;;;;;;;;;;;;4438013;32;19948;-75
2022/01/24 14:55:41;;;;;;;;;;;;;;;;;;4450761;32;20269;-77
2022/01/24 14:58:06;;;;;;;;;;;;;;;;;;4464061;32;19955;-76
2022/01/24 15:00:31;;;;;;;;;;;;;;;;;;4459262;32;19936;-76
2022/01/24 15:02:56;;;;;;;;;;;;;;;;;;4454225;32;19952;-76
2022/01/24 15:05:21;;;;;;;;;;;;;;;;;;4462146;32;19956;-76
2022/01/24 15:07:46;;;;;;;;;;;;;;;;;;4445736;32;19987;-76
2022/01/24 15:10:12;;;;;;;;;;;;;;;;;;4442992;32;20060;-76
2022/01/24 15:12:43;;;;;;;;;;;;;;;;;;4443124;32;19944;-76
2022/01/24 15:15:10;;;;;;;;;;;;;;;;;;4441887;32;19932;-75
2022/01/24 15:25:38;;;;;;;;;;;;;;;;;;4459253;32;20014;-76
2022/01/24 15:28:03;;;;;;;;;;;;;;;;;;4443818;32;19988;-76
2022/01/24 15:30:28;;;;;;;;;;;;;;;;;;4441679;32;20356;-76
2022/01/24 15:32:54;;;;;;;;;;;;;;;;;;4466549;32;19939;-78
2022/01/24 15:35:19;;;;;;;;;;;;;;;;;;4467847;32;19931;-77
2022/01/24 15:37:44;;;;;;;;;;;;;;;;;;4451790;32;20103;-76
2022/01/24 15:40:09;;;;;;;;;;;;;;;;;;4462417;32;20400;-76
2022/01/24 15:47:47;;;;;;;;;;;;;;;;;;4456003;32;19989;-76
2022/01/24 15:50:10;;;;;;;;;;;;;;;;;;4457383;32;20313;-76
2022/01/24 15:52:35;;;;;;;;;;;;;;;;;;4467039;32;20343;-76
2022/01/24 15:55:06;;;;;;;;;;;;;;;;;;4442587;32;19947;-76
2022/01/24 15:57:42;;;;;;;;;;;;;;;;;;4460972;32;20279;-76
2022/01/24 16:00:07;;;;;;;;;;;;;;;;;;4459396;32;20218;-75
2022/01/24 16:02:32;;;;;;;;;;;;;;;;;;4444171;32;19948;-76
2022/01/24 16:04:58;;;;;;;;;;;;;;;;;;4439351;32;20081;-75
2022/01/24 16:07:23;;;;;;;;;;;;;;;;;;4437556;32;19933;-75
2022/01/24 16:09:48;;;;;;;;;;;;;;;;;;4437610;32;19968;-75
2022/01/24 16:12:13;;;;;;;;;;;;;;;;;;4438562;32;19937;-75
2022/01/24 16:14:38;;;;;;;;;;;;;;;;;;4443047;32;19966;-76
2022/01/24 16:17:03;;;;;;;;;;;;;;;;;;4465496;32;20318;-76
2022/01/24 16:19:30;;;;;;;;;;;;;;;;;;4446403;32;20075;-77
2022/01/24 16:22:15;;;;;;;;;;;;;;;;;;4439857;32;19947;-76
2022/01/24 16:25:21;;;;;;;;;;;;;;;;;;4438488;32;20271;-76
2022/01/24 16:27:28;;;;;;;;;;;;;;;;;;4451591;32;19928;-76
2022/01/24 16:29:53;;;;;;;;;;;;;;;;;;4451707;32;19944;-75
2022/01/24 16:32:19;;;;;;;;;;;;;;;;;;4445789;32;20349;-75
2022/01/24 16:34:44;;;;;;;;;;;;;;;;;;4447423;32;19973;-74
2022/01/24 16:37:10;;;;;;;;;;;;;;;;;;4452672;32;20266;-75
2022/01/24 16:39:36;;;;;;;;;;;;;;;;;;4437218;32;19955;-75
2022/01/24 16:42:06;;;;;;;;;;;;;;;;;;4436523;32;19988;-74
2022/01/24 16:47:06;;;;;;;;;;;;;;;;;;4462154;32;19967;-74
2022/01/24 16:49:31;;;;;;;;;;;;;;;;;;4466906;32;19964;-75
2022/01/24 16:51:57;;;;;;;;;;;;;;;;;;4468342;32;19936;-74
2022/01/24 16:54:25;;;;;;;;;;;;;;;;;;4451236;32;19973;-75
2022/01/24 16:56:50;;;;;;;;;;;;;;;;;;4458239;32;19954;-75
2022/01/24 16:59:15;;;;;;;;;;;;;;;;;;4450097;32;19952;-75
2022/01/24 17:01:40;;;;;;;;;;;;;;;;;;4452052;32;19953;-76
2022/01/24 17:04:05;;;;;;;;;;;;;;;;;;4445599;32;19936;-74
2022/01/24 17:06:31;;;;;;;;;;;;;;;;;;4451362;32;20276;-75
2022/01/24 17:08:57;;;;;;;;;;;;;;;;;;4447898;32;19933;-74
2022/01/24 17:11:26;;;;;;;;;;;;;;;;;;4451969;32;19979;-76
2022/01/24 17:13:51;;;;;;;;;;;;;;;;;;4451818;32;19936;-76
2022/01/24 17:16:17;;;;;;;;;;;;;;;;;;4457931;32;19958;-75
2022/01/24 17:18:42;;;;;;;;;;;;;;;;;;4453426;32;20368;-75
2022/01/24 17:21:07;;;;;;;;;;;;;;;;;;4439949;32;19948;-75
2022/01/24 17:23:32;;;;;;;;;;;;;;;;;;4437366;32;19985;-76
2022/01/24 17:25:57;;;;;;;;;;;;;;;;;;4450911;32;20283;-75
2022/01/24 17:28:22;;;;;;;;;;;;;;;;;;4451138;32;19969;-76
2022/01/24 17:30:47;;;;;;;;;;;;;;;;;;4451146;32;19940;-76
2022/01/24 17:33:16;;;;;;;;;;;;;;;;;;4439471;32;19936;-75
2022/01/24 17:35:41;;;;;;;;;;;;;;;;;;4437650;32;19989;-75
2022/01/24 17:38:06;;;;;;;;;;;;;;;;;;4451381;32;19952;-76
2022/01/24 17:40:31;;;;;;;;;;;;;;;;;;4448202;32;19940;-75
2022/01/24 17:42:56;;;;;;;;;;;;;;;;;;4446498;32;20269;-76
2022/01/24 17:45:21;;;;;;;;;;;;;;;;;;4451443;32;20289;-75
2022/01/24 17:47:47;;;;;;;;;;;;;;;;;;4451001;32;20025;-75
2022/01/24 17:50:12;;;;;;;;;;;;;;;;;;4452380;32;20301;-75
2022/01/24 17:52:37;;;;;;;;;;;;;;;;;;4439249;32;19937;-76
2022/01/24 17:55:02;;;;;;;;;;;;;;;;;;4467413;32;19984;-75
2022/01/24 17:57:27;;;;;;;;;;;;;;;;;;4470501;32;19936;-76
2022/01/24 17:59:52;;;;;;;;;;;;;;;;;;4442161;32;19932;-76
2022/01/24 18:02:17;;;;;;;;;;;;;;;;;;4445517;32;19940;-75
2022/01/24 18:04:42;;;;;;;;;;;;;;;;;;4444352;32;19972;-76
2022/01/24 18:07:08;;;;;;;;;;;;;;;;;;4439655;32;19947;-76
2022/01/24 18:09:33;;;;;;;;;;;;;;;;;;4440092;32;19953;-75
2022/01/24 18:11:58;;;;;;;;;;;;;;;;;;4445693;32;19997;-76
2022/01/24 18:14:23;;;;;;;;;;;;;;;;;;4441529;32;19940;-75
2022/01/24 18:16:48;;;;;;;;;;;;;;;;;;4453319;32;19933;-76
2022/01/24 18:19:13;;;;;;;;;;;;;;;;;;4442536;32;19940;-76
2022/01/24 18:21:38;;;;;;;;;;;;;;;;;;4443996;32;19984;-76
2022/01/24 18:24:04;;;;;;;;;;;;;;;;;;4445901;32;19948;-78
2022/01/24 18:26:29;;;;;;;;;;;;;;;;;;4439252;32;19968;-75
2022/01/24 18:28:54;;;;;;;;;;;;;;;;;;4462993;32;20309;-76
2022/01/24 18:31:19;;;;;;;;;;;;;;;;;;4450785;32;19936;-76
2022/01/24 18:33:44;;;;;;;;;;;;;;;;;;4439757;32;19943;-76
2022/01/24 18:36:09;;;;;;;;;;;;;;;;;;4455875;32;19994;-76
2022/01/24 18:38:34;;;;;;;;;;;;;;;;;;4440522;32;20227;-77
2022/01/24 18:40:59;;;;;;;;;;;;;;;;;;4458410;32;19982;-78